Time;durP1;ratioP1;P1;durP2;ratioP2;P2;SDS_P1;SDS_P2;PMS_P1;PMS_P2;Temp;Humidity;BMP_temperature;BMP_pressure;BME280_temperature;BME280_humidity;BME280_pressure;Samples;Min_cycle;Max_cycle;Signal;HPM_P1;HPM_P2
2022/01/05 00:01:37;;;;;;;3.53;0.87;;;8.70;1.00;;;;;;5072056;28;20202;-71
2022/01/05 00:04:04;;;;;;;1.43;0.73;;;8.80;99.90;;;;;;5072038;28;20206;-70
2022/01/05 00:06:31;;;;;;;2.83;0.70;;;8.70;99.90;;;;;;5071942;28;20241;-71
2022/01/05 00:08:59;;;;;;;1.27;0.70;;;8.80;99.90;;;;;;5072054;28;20260;-71
2022/01/05 00:11:26;;;;;;;3.00;0.90;;;8.70;99.90;;;;;;5071353;28;20206;-72
2022/01/05 00:13:56;;;;;;;2.23;0.70;;;8.70;99.90;;;;;;5072254;28;20256;-71
2022/01/05 00:16:23;;;;;;;1.33;0.80;;;8.70;99.90;;;;;;5072461;28;20293;-72
2022/01/05 00:18:50;;;;;;;0.50;0.50;;;8.70;99.90;;;;;;5072046;28;20208;-71
2022/01/05 00:21:17;;;;;;;1.57;1.07;;;8.70;99.90;;;;;;5071990;28;20215;-72
2022/01/05 00:23:44;;;;;;;1.07;0.70;;;8.70;99.90;;;;;;5071171;28;20210;-72
2022/01/05 00:26:13;;;;;;;3.53;0.70;;;8.60;99.90;;;;;;5071607;28;20242;-71
2022/01/05 00:28:40;;;;;;;1.43;0.50;;;8.70;99.90;;;;;;5071250;28;20237;-71
2022/01/05 00:31:07;;;;;;;1.27;0.63;;;8.70;99.90;;;;;;5071877;28;20290;-72
2022/01/05 00:33:33;;;;;;;3.17;1.03;;;8.70;99.90;;;;;;5071261;28;20203;-71
2022/01/05 00:36:00;;;;;;;1.33;0.50;;;8.60;99.90;;;;;;5071525;28;20194;-72
2022/01/05 00:38:27;;;;;;;3.53;0.73;;;8.60;99.90;;;;;;5070911;28;20564;-72
2022/01/05 00:40:54;;;;;;;1.27;0.63;;;8.50;99.90;;;;;;5071708;28;20202;-73
2022/01/05 00:43:23;;;;;;;2.60;0.73;;;8.60;99.90;;;;;;5071652;28;20260;-72
2022/01/05 00:45:50;;;;;;;2.07;0.77;;;8.60;99.90;;;;;;5071482;28;20238;-72
2022/01/05 00:48:17;;;;;;;3.27;0.87;;;8.50;99.90;;;;;;5071458;28;20247;-72
2022/01/05 00:50:44;;;;;;;2.43;0.70;;;8.50;99.90;;;;;;5070863;28;20251;-73
2022/01/05 00:53:11;;;;;;;1.90;0.50;;;8.50;99.90;;;;;;5071107;28;20210;-75
2022/01/05 00:55:38;;;;;;;0.67;0.43;;;8.50;99.90;;;;;;5070887;28;20210;-75
2022/01/05 00:58:05;;;;;;;2.27;0.50;;;8.50;99.90;;;;;;5071327;28;20202;-75
2022/01/05 01:00:34;;;;;;;1.10;0.80;;;8.50;99.90;;;;;;5070815;28;20260;-75
2022/01/05 01:03:01;;;;;;;2.00;0.60;;;8.50;99.90;;;;;;5071138;28;20267;-74
2022/01/05 01:05:28;;;;;;;4.53;0.77;;;8.50;99.90;;;;;;5070673;28;20229;-75
2022/01/05 01:07:55;;;;;;;11.50;0.70;;;8.50;99.90;;;;;;5071169;28;20202;-74
2022/01/05 01:10:21;;;;;;;0.70;0.50;;;8.50;99.90;;;;;;5071320;28;20201;-74
2022/01/05 01:12:49;;;;;;;4.00;0.60;;;8.50;99.90;;;;;;5071059;28;20205;-75
2022/01/05 01:15:16;;;;;;;3.80;0.50;;;8.50;99.90;;;;;;5071012;28;20256;-76
2022/01/05 01:17:44;;;;;;;1.37;0.67;;;8.50;99.90;;;;;;5070700;28;20206;-76
2022/01/05 01:20:12;;;;;;;2.77;0.50;;;8.50;99.90;;;;;;5070997;28;20207;-76
2022/01/05 01:22:39;;;;;;;0.80;0.53;;;8.50;99.90;;;;;;5070609;28;20248;-76
2022/01/05 01:25:07;;;;;;;1.63;0.60;;;8.50;99.90;;;;;;5071057;28;20229;-76
2022/01/05 01:27:34;;;;;;;4.30;0.73;;;8.50;99.90;;;;;;5070474;28;20206;-77
2022/01/05 01:30:01;;;;;;;2.13;0.83;;;8.40;99.90;;;;;;5070881;28;20259;-76
2022/01/05 01:32:28;;;;;;;0.70;0.53;;;8.50;99.90;;;;;;5070449;28;20665;-75
2022/01/05 01:34:57;;;;;;;2.23;0.70;;;8.40;99.90;;;;;;5070648;28;20259;-75
2022/01/05 01:37:24;;;;;;;0.93;0.53;;;8.40;99.90;;;;;;5071023;28;20252;-76
2022/01/05 01:39:51;;;;;;;1.37;0.60;;;8.40;99.90;;;;;;5071006;28;20611;-75
2022/01/05 01:42:18;;;;;;;2.83;0.53;;;8.40;99.90;;;;;;5075797;28;20266;-74
2022/01/05 01:44:45;;;;;;;7.20;1.33;;;8.40;99.90;;;;;;5071094;28;20287;-74
2022/01/05 01:47:12;;;;;;;1.93;1.33;;;8.40;99.90;;;;;;5070695;28;20210;-76
2022/01/05 01:49:39;;;;;;;5.90;0.80;;;8.40;99.90;;;;;;5070149;28;20202;-75
2022/01/05 01:52:07;;;;;;;6.83;1.27;;;8.30;99.90;;;;;;5070475;28;20673;-77
2022/01/05 01:54:36;;;;;;;1.27;0.70;;;8.10;99.90;;;;;;5070425;28;20261;-74
2022/01/05 01:57:04;;;;;;;2.10;0.40;;;8.00;1.00;;;;;;5070620;28;20677;-73
2022/01/05 01:59:31;;;;;;;9.80;1.53;;;7.90;1.00;;;;;;5070113;28;20677;-74
2022/01/05 02:01:59;;;;;;;2.00;0.97;;;7.80;1.00;;;;;;5070766;28;20238;-74
2022/01/05 02:04:26;;;;;;;1.07;0.50;;;7.70;1.00;;;;;;5069987;28;20206;-73
2022/01/05 02:06:53;;;;;;;2.00;0.77;;;7.70;1.00;;;;;;5070626;28;20234;-73
2022/01/05 02:09:22;;;;;;;5.90;1.20;;;7.70;1.00;;;;;;5070868;28;20206;-73
2022/01/05 02:11:49;;;;;;;2.40;0.50;;;7.70;1.00;;;;;;5070463;28;20685;-74
2022/01/05 02:14:16;;;;;;;1.93;0.80;;;7.60;1.00;;;;;;5070391;28;20206;-74
2022/01/05 02:16:44;;;;;;;4.50;1.57;;;7.60;1.00;;;;;;5070364;28;20198;-75
2022/01/05 02:19:13;;;;;;;3.80;0.90;;;7.60;1.00;;;;;;5070456;28;20203;-74
2022/01/05 02:21:42;;;;;;;4.70;1.00;;;7.70;1.00;;;;;;5071398;28;20727;-75
2022/01/05 02:24:11;;;;;;;6.40;1.30;;;7.90;1.00;;;;;;5074388;28;20202;-75
2022/01/05 02:26:39;;;;;;;3.20;0.80;;;8.00;1.00;;;;;;5073592;28;20226;-74
2022/01/05 02:29:06;;;;;;;6.47;1.43;;;8.00;1.00;;;;;;5073995;28;20206;-74
2022/01/05 02:31:33;;;;;;;5.40;0.87;;;8.10;1.00;;;;;;5073730;28;20623;-74
2022/01/05 02:34:01;;;;;;;2.33;0.70;;;8.20;1.00;;;;;;5074007;28;20575;-75
2022/01/05 02:36:28;;;;;;;2.67;1.90;;;8.20;99.90;;;;;;5073562;28;20260;-74
2022/01/05 02:38:56;;;;;;;2.07;1.10;;;8.10;99.90;;;;;;5073711;28;20202;-75
2022/01/05 02:41:23;;;;;;;4.10;0.87;;;8.10;99.90;;;;;;5074027;28;20206;-73
2022/01/05 02:43:51;;;;;;;4.63;0.70;;;8.10;99.90;;;;;;5074172;28;20263;-73
2022/01/05 02:46:20;;;;;;;4.70;1.00;;;8.00;99.90;;;;;;5073678;28;20785;-74
2022/01/05 02:48:47;;;;;;;3.40;0.73;;;8.10;99.90;;;;;;5073295;28;20209;-74
2022/01/05 02:51:15;;;;;;;6.87;1.00;;;8.10;99.90;;;;;;5073510;28;20682;-74
2022/01/05 02:53:42;;;;;;;4.97;0.80;;;8.10;99.90;;;;;;5073282;28;20244;-74
2022/01/05 02:56:12;;;;;;;4.50;1.47;;;8.10;99.90;;;;;;5073633;28;20207;-73
2022/01/05 02:58:39;;;;;;;1.83;0.67;;;8.00;99.90;;;;;;5073174;28;20554;-74
2022/01/05 03:01:07;;;;;;;2.70;1.53;;;8.00;99.90;;;;;;5073685;28;20255;-74
2022/01/05 03:03:34;;;;;;;3.77;1.10;;;8.00;99.90;;;;;;5073050;28;20639;-73
2022/01/05 03:06:01;;;;;;;6.13;3.27;;;8.10;99.90;;;;;;5073370;28;20230;-73
2022/01/05 03:08:28;;;;;;;3.20;0.57;;;8.00;99.90;;;;;;5073067;28;20202;-74
2022/01/05 03:10:55;;;;;;;4.43;1.00;;;8.00;99.90;;;;;;5073635;28;20202;-73
2022/01/05 03:13:24;;;;;;;2.27;0.63;;;8.00;99.90;;;;;;5073887;28;20741;-73
2022/01/05 03:15:52;;;;;;;4.37;1.17;;;8.00;99.90;;;;;;5073450;28;20575;-74
2022/01/05 03:18:19;;;;;;;3.40;1.37;;;7.90;99.90;;;;;;5073413;28;20202;-73
2022/01/05 03:20:47;;;;;;;5.57;0.73;;;7.90;99.90;;;;;;5072737;28;20202;-74
2022/01/05 03:23:14;;;;;;;0.83;0.77;;;7.90;99.90;;;;;;5073154;28;20289;-74
2022/01/05 03:25:42;;;;;;;4.30;0.40;;;7.90;79.70;;;;;;5072795;28;20221;-73
2022/01/05 03:28:10;;;;;;;2.00;0.70;;;7.90;36.60;;;;;;5073097;28;20206;-73
2022/01/05 03:30:40;;;;;;;1.87;0.50;;;8.00;1.00;;;;;;5072734;28;20202;-73
2022/01/05 03:33:11;;;;;;;1.30;0.63;;;8.00;1.00;;;;;;5072636;28;20202;-73
2022/01/05 03:35:41;;;;;;;0.73;0.50;;;8.00;1.00;;;;;;5072545;28;20234;-73
2022/01/05 03:38:09;;;;;;;3.13;0.63;;;8.00;19.50;;;;;;5073054;28;20206;-73
2022/01/05 03:40:37;;;;;;;2.80;0.60;;;7.90;29.30;;;;;;5072570;28;20272;-74
2022/01/05 03:43:05;;;;;;;3.70;0.80;;;7.90;23.00;;;;;;5072712;28;20202;-74
2022/01/05 03:45:32;;;;;;;3.30;1.23;;;7.80;39.70;;;;;;5072124;28;20259;-74
2022/01/05 03:48:00;;;;;;;1.90;0.70;;;7.80;66.10;;;;;;5072661;28;20202;-74
2022/01/05 03:50:27;;;;;;;2.23;0.90;;;7.80;18.40;;;;;;5072512;28;20259;-74
2022/01/05 03:52:54;;;;;;;2.13;0.60;;;7.90;6.90;;;;;;5072591;28;20607;-73
2022/01/05 03:55:21;;;;;;;2.40;0.80;;;7.90;1.00;;;;;;5072903;28;20265;-74
2022/01/05 03:57:48;;;;;;;2.50;0.70;;;7.90;1.00;;;;;;5072394;28;20213;-74
2022/01/05 04:00:16;;;;;;;3.03;1.17;;;8.00;1.00;;;;;;5072203;28;20673;-75
2022/01/05 04:02:44;;;;;;;1.97;0.70;;;8.00;1.00;;;;;;5071930;28;20574;-75
2022/01/05 04:05:12;;;;;;;2.17;0.80;;;8.00;1.00;;;;;;5072510;28;20217;-75
2022/01/05 04:07:39;;;;;;;2.67;1.37;;;8.00;1.00;;;;;;5072025;28;20234;-75
2022/01/05 04:10:07;;;;;;;4.60;0.67;;;8.00;1.00;;;;;;5072180;28;20662;-74
2022/01/05 04:12:34;;;;;;;1.83;0.77;;;8.00;1.00;;;;;;5071897;28;20199;-74
2022/01/05 04:15:01;;;;;;;4.40;2.00;;;8.00;1.00;;;;;;5071756;28;20202;-74
2022/01/05 04:17:28;;;;;;;2.67;0.57;;;7.90;1.00;;;;;;5071975;28;20206;-74
2022/01/05 04:19:55;;;;;;;3.60;1.27;;;7.90;1.00;;;;;;5072279;28;20202;-74
2022/01/05 04:22:23;;;;;;;2.83;0.53;;;7.90;1.00;;;;;;5072348;28;20580;-74
2022/01/05 04:24:50;;;;;;;6.53;1.33;;;7.90;1.00;;;;;;5072240;28;20579;-74
2022/01/05 04:27:17;;;;;;;6.20;0.60;;;7.90;1.00;;;;;;5071703;28;20282;-74
2022/01/05 04:29:45;;;;;;;2.47;1.03;;;7.90;1.00;;;;;;5071308;28;20232;-73
2022/01/05 04:32:12;;;;;;;1.40;0.90;;;7.90;1.00;;;;;;5071991;28;20206;-74
2022/01/05 04:34:39;;;;;;;3.50;1.03;;;7.70;1.00;;;;;;5071223;28;20206;-73
2022/01/05 04:37:07;;;;;;;1.33;0.97;;;7.50;1.00;;;;;;5071888;28;20202;-74
2022/01/05 04:39:36;;;;;;;6.43;2.00;;;7.60;1.00;;;;;;5071116;28;20202;-73
2022/01/05 04:42:04;;;;;;;2.30;0.80;;;7.70;1.00;;;;;;5071575;28;20202;-74
2022/01/05 04:44:31;;;;;;;5.93;2.63;;;7.70;1.00;;;;;;5070410;28;20214;-74
2022/01/05 04:46:58;;;;;;;4.43;1.33;;;7.50;1.00;;;;;;5071636;28;20259;-73
2022/01/05 04:49:25;;;;;;;3.37;0.80;;;7.40;1.00;;;;;;5071289;28;20634;-74
2022/01/05 04:51:52;;;;;;;3.23;0.77;;;7.40;1.00;;;;;;5071778;28;20202;-73
2022/01/05 04:54:19;;;;;;;6.47;1.90;;;7.30;1.00;;;;;;5071616;28;20620;-73
2022/01/05 04:56:47;;;;;;;4.10;0.93;;;7.20;1.00;;;;;;5071118;28;20267;-74
2022/01/05 04:59:15;;;;;;;2.50;0.70;;;7.10;1.00;;;;;;5071306;28;20255;-73
2022/01/05 05:01:42;;;;;;;6.73;2.13;;;7.10;1.00;;;;;;5070870;28;20244;-73
2022/01/05 05:04:09;;;;;;;4.67;1.30;;;7.20;1.00;;;;;;5071192;28;20206;-73
2022/01/05 05:06:36;;;;;;;4.90;1.53;;;7.10;1.00;;;;;;5070878;28;20233;-73
2022/01/05 05:09:03;;;;;;;2.53;0.60;;;6.90;1.00;;;;;;5071152;28;20198;-73
2022/01/05 05:11:30;;;;;;;5.50;0.90;;;6.80;1.00;;;;;;5070803;28;20251;-73
2022/01/05 05:13:59;;;;;;;5.13;1.13;;;6.60;1.00;;;;;;5071014;28;20350;-73
2022/01/05 05:16:26;;;;;;;5.97;1.23;;;6.60;1.00;;;;;;5070859;28;20252;-73
2022/01/05 05:18:53;;;;;;;3.50;1.00;;;6.50;1.00;;;;;;5071411;28;20669;-73
2022/01/05 05:21:20;;;;;;;2.63;0.80;;;6.40;1.00;;;;;;5071298;28;20669;-74
2022/01/05 05:23:47;;;;;;;5.37;1.17;;;6.30;1.00;;;;;;5070572;28;20252;-72
2022/01/05 05:26:14;;;;;;;1.50;0.67;;;6.20;1.00;;;;;;5071031;28;20643;-73
2022/01/05 05:28:40;;;;;;;5.23;0.80;;;6.10;1.00;;;;;;5070536;28;20198;-74
2022/01/05 05:31:09;;;;;;;3.30;2.07;;;6.00;1.00;;;;;;5070943;28;20198;-73
2022/01/05 05:33:36;;;;;;;1.93;0.60;;;5.90;1.00;;;;;;5070623;28;20244;-75
2022/01/05 05:36:03;;;;;;;1.77;0.97;;;5.80;1.00;;;;;;5070893;28;20202;-73
2022/01/05 05:38:30;;;;;;;4.50;1.70;;;5.70;1.00;;;;;;5070400;28;20202;-73
2022/01/05 05:40:57;;;;;;;3.67;1.43;;;5.70;1.00;;;;;;5071072;28;20263;-73
2022/01/05 05:43:24;;;;;;;3.63;0.97;;;5.70;1.00;;;;;;5070580;28;20214;-74
2022/01/05 05:45:51;;;;;;;1.90;1.13;;;5.70;1.00;;;;;;5071101;28;20259;-74
2022/01/05 05:48:20;;;;;;;4.40;1.30;;;5.60;1.00;;;;;;5070893;28;20654;-74
2022/01/05 05:50:47;;;;;;;2.73;1.63;;;5.50;1.00;;;;;;5070242;28;20206;-75
2022/01/05 05:53:14;;;;;;;4.10;1.40;;;5.40;1.00;;;;;;5070679;28;20263;-75
2022/01/05 05:55:41;;;;;;;3.50;0.93;;;5.40;1.00;;;;;;5070105;28;20633;-74
2022/01/05 05:58:08;;;;;;;5.77;1.67;;;5.30;1.00;;;;;;5074172;28;20213;-74
2022/01/05 06:00:35;;;;;;;3.43;1.43;;;5.30;1.00;;;;;;5073945;28;20626;-74
2022/01/05 06:03:02;;;;;;;4.30;1.43;;;5.30;1.00;;;;;;5074695;28;20263;-74
2022/01/05 06:05:30;;;;;;;5.10;1.23;;;5.20;1.00;;;;;;5074071;28;20251;-73
2022/01/05 06:07:57;;;;;;;2.07;0.90;;;5.20;1.00;;;;;;5074783;28;20591;-74
2022/01/05 06:10:24;;;;;;;3.50;1.37;;;5.20;1.00;;;;;;5074193;28;20674;-74
2022/01/05 06:12:51;;;;;;;4.53;1.83;;;5.90;1.00;;;;;;5074920;28;20210;-73
2022/01/05 06:15:18;;;;;;;1.93;0.90;;;5.10;1.00;;;;;;5074775;28;20198;-73
2022/01/05 06:17:46;;;;;;;3.03;1.30;;;5.00;1.00;;;;;;5073782;28;20206;-74
2022/01/05 06:20:13;;;;;;;3.73;1.50;;;5.10;1.00;;;;;;5074273;28;20214;-73
2022/01/05 06:22:43;;;;;;;5.43;1.53;;;5.00;1.00;;;;;;5073997;28;20666;-74
2022/01/05 06:25:11;;;;;;;1.33;1.23;;;4.90;1.00;;;;;;5074218;28;20213;-73
2022/01/05 06:27:39;;;;;;;3.60;1.00;;;4.90;1.00;;;;;;5073817;28;20233;-73
2022/01/05 06:30:08;;;;;;;2.50;0.77;;;4.80;1.00;;;;;;5074189;28;20202;-74
2022/01/05 06:32:35;;;;;;;2.27;1.07;;;4.80;1.00;;;;;;5073386;28;20206;-73
2022/01/05 06:35:04;;;;;;;3.03;1.20;;;4.80;1.00;;;;;;5074007;28;20584;-73
2022/01/05 06:37:31;;;;;;;3.70;2.13;;;4.80;1.00;;;;;;5073843;28;20255;-74
2022/01/05 06:40:00;;;;;;;2.30;0.97;;;4.70;1.00;;;;;;5073656;28;20198;-74
2022/01/05 06:42:27;;;;;;;3.37;0.93;;;4.70;1.00;;;;;;5073614;28;20206;-73
2022/01/05 06:44:54;;;;;;;4.13;2.57;;;4.70;1.00;;;;;;5073669;28;20630;-73
2022/01/05 06:47:21;;;;;;;2.37;1.40;;;4.70;1.00;;;;;;5073981;28;20651;-74
2022/01/05 06:49:48;;;;;;;1.97;0.93;;;4.60;1.00;;;;;;5073617;28;20588;-73
2022/01/05 06:52:15;;;;;;;4.83;1.60;;;4.60;1.00;;;;;;5073807;28;20256;-73
2022/01/05 06:54:42;;;;;;;2.67;1.73;;;4.70;1.00;;;;;;5073220;28;20260;-73
2022/01/05 06:57:11;;;;;;;2.67;0.70;;;4.60;1.00;;;;;;5073721;28;20202;-73
2022/01/05 06:59:39;;;;;;;2.27;1.30;;;4.60;1.00;;;;;;5073128;28;20275;-74
2022/01/05 07:02:06;;;;;;;3.00;1.10;;;4.50;1.00;;;;;;5077563;28;20686;-74
2022/01/05 07:04:34;;;;;;;2.30;1.33;;;4.50;1.00;;;;;;5083212;28;20304;-75
2022/01/05 07:07:01;;;;;;;4.47;0.80;;;4.40;1.00;;;;;;5075319;28;20240;-74
2022/01/05 07:09:28;;;;;;;2.63;1.07;;;4.80;1.00;;;;;;5072930;28;20198;-74
2022/01/05 07:11:55;;;;;;;2.90;0.97;;;4.40;1.00;;;;;;5077240;28;20622;-76
2022/01/05 07:14:24;;;;;;;6.27;1.67;;;4.60;1.00;;;;;;5083668;28;20210;-74
2022/01/05 07:16:51;;;;;;;2.80;1.47;;;4.70;1.00;;;;;;5094031;28;20296;-74
2022/01/05 07:19:19;;;;;;;1.53;0.90;;;4.70;1.00;;;;;;5093754;28;20201;-74
2022/01/05 07:21:47;;;;;;;8.00;2.57;;;4.80;1.00;;;;;;5091849;28;20251;-74
2022/01/05 07:24:17;;;;;;;2.47;1.10;;;4.90;1.00;;;;;;5091767;28;20213;-74
2022/01/05 07:26:45;;;;;;;2.40;1.07;;;4.90;1.00;;;;;;5081807;28;20221;-71
2022/01/05 07:29:12;;;;;;;5.10;1.87;;;5.00;1.00;;;;;;5086602;28;20211;-74
2022/01/05 07:31:40;;;;;;;4.93;1.50;;;5.00;1.00;;;;;;5072399;28;20256;-74
2022/01/05 07:34:08;;;;;;;3.97;1.20;;;5.00;1.00;;;;;;5073026;28;20206;-74
2022/01/05 07:36:35;;;;;;;9.43;1.43;;;5.10;1.00;;;;;;5091221;28;20198;-73
2022/01/05 07:39:05;;;;;;;3.10;1.17;;;5.20;1.00;;;;;;5085915;28;20260;-73
2022/01/05 07:41:32;;;;;;;2.03;1.20;;;5.20;1.00;;;;;;5072160;28;20198;-74
2022/01/05 07:43:59;;;;;;;3.77;1.17;;;5.50;1.00;;;;;;5075186;28;20216;-74
2022/01/05 07:46:26;;;;;;;1.23;0.70;;;5.20;1.00;;;;;;5071851;28;20263;-73
2022/01/05 07:48:55;;;;;;;3.33;0.93;;;5.20;1.00;;;;;;5084953;28;20288;-73
2022/01/05 07:51:22;;;;;;;3.50;0.97;;;5.20;1.00;;;;;;5072834;28;20248;-74
2022/01/05 07:53:49;;;;;;;3.13;0.90;;;5.20;1.00;;;;;;5074481;28;20207;-72
2022/01/05 07:56:16;;;;;;;1.90;0.80;;;5.20;1.00;;;;;;5072386;28;20259;-72
2022/01/05 07:58:43;;;;;;;4.83;1.50;;;5.20;1.00;;;;;;5091107;28;20623;-72
2022/01/05 08:01:10;;;;;;;20.70;2.57;;;5.20;1.00;;;;;;5092416;28;20620;-73
2022/01/05 08:03:37;;;;;;;8.00;1.37;;;5.30;1.00;;;;;;5092289;28;20202;-74
2022/01/05 08:06:06;;;;;;;5.63;2.60;;;5.80;1.00;;;;;;5074986;28;20214;-73
2022/01/05 08:08:33;;;;;;;4.67;2.17;;;5.90;1.00;;;;;;5082964;28;20229;-74
2022/01/05 08:11:00;;;;;;;4.93;1.43;;;5.90;1.00;;;;;;5091385;28;20752;-73
2022/01/05 08:13:27;;;;;;;2.60;1.20;;;6.00;1.00;;;;;;5092173;28;20201;-73
2022/01/05 08:15:55;;;;;;;4.57;2.10;;;5.90;1.00;;;;;;5092275;28;20209;-72
2022/01/05 08:18:23;;;;;;;2.43;1.30;;;5.80;1.00;;;;;;5092195;28;20610;-73
2022/01/05 08:20:50;;;;;;;3.13;1.67;;;5.90;1.00;;;;;;5091673;28;20202;-74
2022/01/05 08:23:19;;;;;;;3.17;1.30;;;6.00;1.00;;;;;;5092229;28;20205;-72
2022/01/05 08:25:47;;;;;;;3.87;1.30;;;5.90;1.00;;;;;;5091654;28;20262;-73
2022/01/05 08:28:15;;;;;;;3.17;1.57;;;5.90;1.00;;;;;;5091471;28;20245;-74
2022/01/05 08:30:44;;;;;;;2.97;1.23;;;6.10;1.00;;;;;;5091666;28;20251;-73
2022/01/05 08:33:11;;;;;;;2.97;0.97;;;6.40;1.00;;;;;;5092050;28;20202;-74
2022/01/05 08:35:39;;;;;;;1.23;0.77;;;6.70;1.00;;;;;;5091320;28;20205;-70
2022/01/05 08:38:06;;;;;;;7.47;1.47;;;6.40;1.00;;;;;;5091776;28;20580;-70
2022/01/05 08:40:37;;;;;;;4.37;2.13;;;6.20;1.00;;;;;;5091473;28;20668;-70
2022/01/05 08:43:05;;;;;;;3.17;1.00;;;6.10;1.00;;;;;;5091845;28;20197;-73
2022/01/05 08:45:33;;;;;;;2.90;1.10;;;6.10;1.00;;;;;;5091407;28;20626;-71
2022/01/05 08:48:00;;;;;;;3.23;1.60;;;6.50;1.00;;;;;;5084944;28;20226;-72
2022/01/05 08:50:30;;;;;;;3.03;1.33;;;6.60;1.00;;;;;;5071333;28;20209;-71
2022/01/05 08:52:58;;;;;;;3.70;1.20;;;6.80;1.00;;;;;;5091430;28;20197;-69
2022/01/05 08:55:28;;;;;;;5.07;1.27;;;7.30;1.00;;;;;;5087997;28;20288;-71
2022/01/05 08:57:56;;;;;;;1.73;1.00;;;7.40;1.00;;;;;;5080929;28;20300;-73
2022/01/05 09:00:23;;;;;;;3.10;1.07;;;7.30;1.00;;;;;;5072607;28;20586;-71
2022/01/05 09:02:51;;;;;;;3.53;1.20;;;7.90;1.00;;;;;;5085276;28;20677;-70
2022/01/05 09:05:18;;;;;;;3.40;0.70;;;8.10;1.00;;;;;;5076304;28;20238;-71
2022/01/05 09:07:45;;;;;;;5.83;1.20;;;7.20;1.00;;;;;;5070754;28;20230;-71
2022/01/05 09:10:13;;;;;;;1.17;0.90;;;7.00;1.00;;;;;;5071109;28;20206;-70
2022/01/05 09:12:40;;;;;;;3.50;1.33;;;6.80;1.00;;;;;;5089218;28;20267;-70
2022/01/05 09:15:09;;;;;;;2.57;1.53;;;6.70;1.00;;;;;;5087084;28;20254;-71
2022/01/05 09:17:36;;;;;;;2.63;1.00;;;6.80;1.00;;;;;;5089603;28;20205;-69
2022/01/05 09:20:05;;;;;;;3.90;1.00;;;6.80;1.00;;;;;;5086274;28;20202;-70
2022/01/05 09:22:33;;;;;;;2.40;0.93;;;6.90;1.00;;;;;;5087686;28;20201;-70
2022/01/05 09:25:00;;;;;;;4.80;0.93;;;7.20;1.00;;;;;;5082602;28;20201;-69
2022/01/05 09:27:27;;;;;;;3.67;0.87;;;6.80;1.00;;;;;;5077669;28;20270;-69
2022/01/05 09:29:54;;;;;;;5.23;2.93;;;7.00;1.00;;;;;;5090760;28;20209;-71
2022/01/05 09:32:22;;;;;;;3.87;1.50;;;7.20;1.00;;;;;;5091029;28;20262;-70
2022/01/05 09:34:50;;;;;;;5.53;1.27;;;7.30;1.00;;;;;;5082389;28;20206;-69
2022/01/05 09:37:22;;;;;;;3.10;1.23;;;7.20;1.00;;;;;;5082028;28;20212;-69
2022/01/05 09:42:34;;;;;;;7.93;1.57;;;7.20;1.00;;;;;;5085145;28;20594;-71
2022/01/05 09:45:12;;;;;;;4.90;1.53;;;7.10;1.00;;;;;;5085295;28;20260;-68
2022/01/05 09:47:52;;;;;;;7.73;1.50;;;7.00;1.00;;;;;;5071797;28;20233;-70
2022/01/05 09:50:21;;;;;;;2.90;1.30;;;7.00;1.00;;;;;;5070364;28;20731;-68
2022/01/05 09:52:48;;;;;;;7.50;2.77;;;7.00;1.00;;;;;;5085339;28;20263;-69
2022/01/05 09:55:17;;;;;;;2.70;0.90;;;7.10;1.00;;;;;;5089364;28;20213;-69
2022/01/05 09:57:47;;;;;;;3.43;1.80;;;7.10;1.00;;;;;;5086191;28;20210;-69
2022/01/05 10:00:16;;;;;;;3.67;1.63;;;7.00;1.00;;;;;;5086813;28;20210;-70
2022/01/05 10:02:49;;;;;;;15.57;7.77;;;7.20;1.00;;;;;;5087829;28;20214;-70
2022/01/05 10:05:17;;;;;;;4.33;1.80;;;7.30;1.00;;;;;;5090285;28;20209;-70
2022/01/05 10:07:44;;;;;;;5.07;1.50;;;7.50;1.00;;;;;;5076273;28;20312;-71
2022/01/05 10:10:12;;;;;;;4.13;1.40;;;7.50;1.00;;;;;;5090376;28;20278;-69
2022/01/05 10:12:40;;;;;;;5.90;1.60;;;7.60;1.00;;;;;;5089824;28;20197;-70
2022/01/05 10:15:08;;;;;;;4.93;1.90;;;7.60;1.00;;;;;;5090240;28;20206;-70
2022/01/05 10:17:36;;;;;;;4.27;1.20;;;7.70;1.00;;;;;;5078649;28;20210;-72
2022/01/05 10:20:07;;;;;;;2.67;1.43;;;7.60;1.00;;;;;;5081168;28;20677;-69
2022/01/05 10:22:35;;;;;;;3.33;1.33;;;7.80;1.00;;;;;;5078358;28;20236;-70
2022/01/05 10:25:04;;;;;;;3.30;1.23;;;7.60;1.00;;;;;;5090152;28;20202;-71
2022/01/05 10:27:32;;;;;;;6.80;1.40;;;7.70;1.00;;;;;;5082288;28;20210;-69
2022/01/05 10:30:00;;;;;;;3.10;1.40;;;7.70;1.00;;;;;;5075047;28;20202;-70
2022/01/05 10:32:30;;;;;;;4.97;2.53;;;7.70;1.00;;;;;;5087935;28;20218;-70
2022/01/05 10:35:04;;;;;;;1.93;1.00;;;7.80;1.00;;;;;;5089052;28;20212;-71
2022/01/05 10:37:32;;;;;;;6.37;1.73;;;7.90;1.00;;;;;;5068832;28;20198;-71
2022/01/05 10:40:07;;;;;;;3.67;1.50;;;8.00;1.00;;;;;;5069956;28;20205;-71
2022/01/05 10:42:34;;;;;;;4.93;2.00;;;8.10;1.00;;;;;;5070932;28;20300;-70
2022/01/05 10:45:02;;;;;;;5.20;1.87;;;8.40;1.00;;;;;;5073579;28;20272;-70
2022/01/05 10:47:29;;;;;;;4.00;1.10;;;8.40;1.00;;;;;;5073175;28;20206;-70
2022/01/05 10:49:57;;;;;;;5.57;1.50;;;8.20;1.00;;;;;;5073687;28;20295;-70
2022/01/05 10:52:26;;;;;;;5.43;2.30;;;8.30;1.00;;;;;;5081409;28;20218;-71
2022/01/05 10:54:55;;;;;;;5.20;1.13;;;8.40;1.00;;;;;;5076629;28;20293;-71
2022/01/05 10:57:22;;;;;;;3.50;1.10;;;8.40;1.00;;;;;;5073877;28;20202;-71
2022/01/05 10:59:53;;;;;;;7.20;1.40;;;8.40;1.00;;;;;;5075702;28;20252;-72
2022/01/05 11:02:27;;;;;;;5.00;1.17;;;8.60;1.00;;;;;;5082686;28;20305;-72
2022/01/05 11:04:58;;;;;;;3.80;1.40;;;8.60;1.00;;;;;;5092849;28;20215;-71
2022/01/05 11:07:29;;;;;;;5.10;1.63;;;8.30;1.00;;;;;;5090013;28;20691;-72
2022/01/05 11:09:57;;;;;;;5.00;1.73;;;8.30;1.00;;;;;;5093118;28;20607;-72
2022/01/05 11:12:35;;;;;;;10.03;1.40;;;8.30;1.00;;;;;;5093796;28;20295;-70
2022/01/05 11:15:24;;;;;;;4.50;1.20;;;8.20;1.00;;;;;;5093377;28;20197;-68
2022/01/05 11:18:10;;;;;;;5.20;1.40;;;8.50;1.00;;;;;;5093576;28;20202;-69
2022/01/05 11:20:38;;;;;;;4.47;1.77;;;8.70;1.00;;;;;;5093023;28;20209;-70
2022/01/05 11:23:07;;;;;;;3.87;1.83;;;8.50;1.00;;;;;;5093307;28;20205;-72
2022/01/05 11:25:37;;;;;;;1.40;1.03;;;8.50;1.00;;;;;;5093026;28;20205;-72
2022/01/05 11:28:04;;;;;;;5.50;1.30;;;8.40;1.00;;;;;;5091156;28;20611;-73
2022/01/05 11:30:31;;;;;;;2.73;0.80;;;8.30;1.00;;;;;;5084591;28;20202;-72
2022/01/05 11:32:59;;;;;;;2.03;1.00;;;8.50;1.00;;;;;;5087303;28;20206;-72
2022/01/05 11:35:27;;;;;;;6.03;2.27;;;8.50;1.00;;;;;;5072666;28;20271;-72
2022/01/05 11:37:54;;;;;;;4.17;1.70;;;8.40;1.00;;;;;;5072863;28;20673;-72
2022/01/05 11:40:23;;;;;;;4.73;1.30;;;8.30;1.00;;;;;;5073088;28;20255;-72
2022/01/05 11:42:52;;;;;;;5.03;1.30;;;8.50;1.00;;;;;;5073075;28;20656;-73
2022/01/05 11:45:32;;;;;;;3.27;1.33;;;8.70;1.00;;;;;;5078246;28;20214;-72
2022/01/05 11:48:17;;;;;;;7.20;1.77;;;8.70;1.00;;;;;;5092587;28;20619;-72
2022/01/05 11:50:47;;;;;;;3.77;1.40;;;8.70;1.00;;;;;;5092307;28;20292;-72
2022/01/05 11:53:15;;;;;;;8.00;2.23;;;8.40;1.00;;;;;;5092792;28;20259;-72
2022/01/05 11:56:07;;;;;;;2.80;1.43;;;8.40;1.00;;;;;;5092363;28;20208;-73
2022/01/05 11:58:35;;;;;;;7.50;1.30;;;8.30;1.00;;;;;;5092052;28;20209;-72
2022/01/05 12:01:25;;;;;;;3.53;1.53;;;8.20;1.00;;;;;;5092622;28;20235;-72
2022/01/05 12:04:14;;;;;;;4.40;1.83;;;8.20;1.00;;;;;;5081925;28;20198;-72
2022/01/05 12:07:02;;;;;;;4.47;1.83;;;8.00;1.00;;;;;;5071990;28;20665;-73
2022/01/05 12:09:30;;;;;;;3.87;1.50;;;8.10;1.00;;;;;;5086840;28;20229;-72
2022/01/05 12:12:02;;;;;;;7.07;2.30;;;7.90;1.00;;;;;;5075211;28;20685;-72
2022/01/05 12:14:46;;;;;;;7.63;2.30;;;7.90;1.00;;;;;;5071427;28;20225;-72
2022/01/05 12:17:14;;;;;;;5.03;1.70;;;8.00;1.00;;;;;;5081607;28;20205;-72
2022/01/05 12:20:13;;;;;;;6.73;1.57;;;7.90;1.00;;;;;;5088846;28;20205;-72
2022/01/05 12:22:41;;;;;;;7.27;1.60;;;7.80;1.00;;;;;;5089941;28;20273;-75
2022/01/05 12:25:21;;;;;;;3.53;1.50;;;7.90;1.00;;;;;;5075252;28;20669;-77
2022/01/05 12:28:07;;;;;;;3.27;2.27;;;8.40;1.00;;;;;;5085054;28;20205;-72
2022/01/05 12:30:42;;;;;;;3.73;1.73;;;8.40;1.00;;;;;;5081497;28;20263;-71
2022/01/05 12:33:14;;;;;;;3.17;1.70;;;8.40;1.00;;;;;;5085856;28;20571;-71
2022/01/05 12:35:50;;;;;;;3.87;0.80;;;8.40;1.00;;;;;;5086027;28;20680;-72
2022/01/05 12:38:54;;;;;;;4.20;2.43;;;8.40;1.00;;;;;;5087877;28;20205;-72
2022/01/05 12:41:30;;;;;;;3.60;1.63;;;8.40;1.00;;;;;;5090348;28;20219;-71
2022/01/05 12:44:00;;;;;;;4.83;1.60;;;8.50;1.00;;;;;;5080245;28;20218;-71
2022/01/05 12:46:37;;;;;;;5.67;2.10;;;8.60;1.00;;;;;;5088696;28;20672;-71
2022/01/05 12:49:09;;;;;;;5.40;1.37;;;8.40;1.00;;;;;;5080957;28;20270;-71
2022/01/05 12:51:50;;;;;;;2.43;1.07;;;8.30;1.00;;;;;;5085791;28;20213;-72
2022/01/05 12:54:19;;;;;;;6.20;1.43;;;8.40;1.00;;;;;;5082856;28;20559;-71
2022/01/05 12:56:53;;;;;;;2.90;2.20;;;8.50;1.00;;;;;;5082890;28;20621;-71
2022/01/05 12:59:27;;;;;;;6.47;1.30;;;8.60;1.00;;;;;;5090255;28;20353;-73
2022/01/05 13:01:56;;;;;;;3.80;0.93;;;8.70;1.00;;;;;;5079725;28;20202;-73
2022/01/05 13:04:27;;;;;;;5.40;2.40;;;8.80;1.00;;;;;;5080602;28;20205;-73
2022/01/05 13:06:58;;;;;;;10.10;2.63;;;8.80;1.00;;;;;;5086235;28;20234;-73
2022/01/05 13:09:28;;;;;;;6.07;2.87;;;8.80;1.00;;;;;;5090022;28;20727;-73
2022/01/05 13:11:58;;;;;;;6.50;1.47;;;8.80;1.00;;;;;;5076913;28;20244;-72
2022/01/05 13:14:30;;;;;;;4.63;1.20;;;8.80;1.00;;;;;;5075801;28;20247;-73
2022/01/05 13:16:59;;;;;;;6.80;1.37;;;8.80;1.00;;;;;;5078049;28;20286;-72